createdAt,value
2023-02-22T00:01:19.390Z,100421.66
2023-02-22T00:03:25.095Z,100421.63
2023-02-22T00:05:31.527Z,100427.81
2023-02-22T00:07:35.783Z,100418.38
2023-02-22T00:09:38.603Z,100422.22
2023-02-22T00:11:47.596Z,100423.91
2023-02-22T00:13:50.802Z,100418.53
2023-02-22T00:15:57.614Z,100414.47
2023-02-22T00:18:01.996Z,100414.94
2023-02-22T00:20:07.211Z,100411.44
2023-02-22T00:22:10.076Z,100408.50
2023-02-22T00:24:23.198Z,100406.78
2023-02-22T00:26:26.370Z,100401.13
2023-02-22T00:28:30.653Z,100401.34
2023-02-22T00:30:34.342Z,100408.03
2023-02-22T00:32:37.296Z,100404.31
2023-02-22T00:34:42.108Z,100404.59
2023-02-22T00:36:48.226Z,100405.81
2023-02-22T00:38:51.143Z,100400.03
2023-02-22T00:40:54.149Z,100401.19
2023-02-22T00:42:57.696Z,100405.66
2023-02-22T00:45:00.550Z,100399.53
2023-02-22T00:47:04.851Z,100403.66
2023-02-22T00:49:07.915Z,100403.66
2023-02-22T00:51:13.307Z,100398.59
2023-02-22T00:53:16.903Z,100390.66
2023-02-22T00:55:22.885Z,100387.69
2023-02-22T00:57:26.600Z,100391.31
2023-02-22T00:59:31.113Z,100384.34
2023-02-22T01:01:34.063Z,100389.78
2023-02-22T01:03:41.500Z,100388.25
2023-02-22T01:05:45.435Z,100386.44
2023-02-22T01:07:51.068Z,100387.53
2023-02-22T01:09:54.363Z,100385.56
2023-02-22T01:11:58.343Z,100382.72
2023-02-22T01:14:01.283Z,100387.38
2023-02-22T01:16:04.543Z,100391.25
2023-02-22T01:18:08.147Z,100385.47
2023-02-22T01:20:13.567Z,100388.72
2023-02-22T01:22:17.298Z,100376.50
2023-02-22T01:24:22.441Z,100378.22
2023-02-22T01:26:26.128Z,100375.59
2023-02-22T01:28:29.198Z,100378.69
2023-02-22T01:30:34.027Z,100375.84
2023-02-22T01:32:37.983Z,100369.16
2023-02-22T01:34:41.651Z,100372.13
2023-02-22T01:36:47.391Z,100364.34
2023-02-22T01:38:50.485Z,100365.47
2023-02-22T01:40:54.857Z,100361.16
2023-02-22T01:42:59.812Z,100356.91
2023-02-22T01:45:41.159Z,100351.75
2023-02-22T01:47:44.840Z,100351.06
2023-02-22T01:49:49.379Z,100346.75
2023-02-22T01:51:55.965Z,100351.00
2023-02-22T01:54:01.019Z,100339.59
2023-02-22T01:56:06.547Z,100348.50
2023-02-22T01:58:10.932Z,100339.59
2023-02-22T02:00:17.313Z,100338.03
2023-02-22T02:02:22.177Z,100336.28
2023-02-22T02:04:26.390Z,100337.38
2023-02-22T02:06:33.588Z,100334.66
2023-02-22T02:08:39.820Z,100335.06
2023-02-22T02:10:44.229Z,100331.34
2023-02-22T02:12:50.501Z,100337.97
2023-02-22T02:14:53.414Z,100338.38
2023-02-22T02:16:57.317Z,100337.13
2023-02-22T02:19:01.422Z,100342.06
2023-02-22T02:21:40.725Z,100326.38
2023-02-22T02:24:16.207Z,100334.00
2023-02-22T02:26:59.244Z,100320.06
2023-02-22T02:29:25.302Z,100326.06
2023-02-22T02:31:47.644Z,100331.69
2023-02-22T02:33:56.093Z,100324.66
2023-02-22T02:36:04.551Z,100316.59
2023-02-22T02:38:13.011Z,100322.44
2023-02-22T02:40:21.903Z,100315.19
2023-02-22T02:42:27.712Z,100314.38
2023-02-22T02:44:34.024Z,100314.38
2023-02-22T02:46:40.163Z,100311.47
2023-02-22T02:48:45.093Z,100308.66
2023-02-22T02:50:49.952Z,100309.31
2023-02-22T02:52:55.055Z,100301.91
2023-02-22T02:54:58.583Z,100301.25
2023-02-22T02:57:01.513Z,100301.25
2023-02-22T02:59:04.572Z,100298.03
2023-02-22T03:01:07.424Z,100290.22
2023-02-22T03:03:23.564Z,100290.31
2023-02-22T03:05:44.063Z,100289.63
2023-02-22T03:07:53.059Z,100286.03
2023-02-22T03:10:09.002Z,100288.84
2023-02-22T03:12:19.883Z,100280.16
2023-02-22T03:14:25.926Z,100279.38
2023-02-22T03:16:35.408Z,100280.22
2023-02-22T03:18:46.896Z,100282.28
2023-02-22T03:20:54.635Z,100277.66
2023-02-22T03:23:00.727Z,100269.84
2023-02-22T03:25:09.029Z,100273.44
2023-02-22T03:27:14.161Z,100271.44
2023-02-22T03:29:23.394Z,100266.28
2023-02-22T03:31:31.466Z,100260.28
2023-02-22T03:33:37.896Z,100261.38
2023-02-22T03:35:43.963Z,100259.16
2023-02-22T03:37:48.271Z,100261.69
2023-02-22T03:39:56.155Z,100252.91
2023-02-22T03:42:00.999Z,100265.50
2023-02-22T03:44:06.759Z,100253.09
2023-02-22T03:46:10.418Z,100251.63
2023-02-22T03:48:21.695Z,100246.13
2023-02-22T03:50:29.800Z,100251.69
2023-02-22T03:52:32.638Z,100250.91
2023-02-22T03:54:36.149Z,100256.19
2023-02-22T03:56:47.284Z,100246.59
2023-02-22T03:58:51.112Z,100252.28
2023-02-22T04:00:54.720Z,100252.19
2023-02-22T04:02:58.267Z,100248.66
2023-02-22T04:05:01.377Z,100245.03
2023-02-22T04:07:04.561Z,100248.78
2023-02-22T04:09:08.654Z,100237.19
2023-02-22T04:11:11.601Z,100246.00
2023-02-22T04:13:16.366Z,100240.28
2023-02-22T04:15:24.884Z,100243.19
2023-02-22T04:17:32.118Z,100243.28
2023-02-22T04:19:36.301Z,100240.94
2023-02-22T04:21:39.167Z,100234.66
2023-02-22T04:23:46.096Z,100228.50
2023-02-22T04:25:49.505Z,100241.94
2023-02-22T04:27:54.033Z,100240.25
2023-02-22T04:30:10.592Z,100232.50
2023-02-22T04:32:14.894Z,100232.47
2023-02-22T04:34:17.824Z,100227.50
2023-02-22T04:36:21.727Z,100226.44
2023-02-22T04:38:26.012Z,100225.72
2023-02-22T04:40:30.378Z,100227.66
2023-02-22T04:42:33.521Z,100217.44
2023-02-22T04:44:36.450Z,100226.06
2023-02-22T04:46:42.140Z,100220.66
2023-02-22T04:48:46.157Z,100225.81
2023-02-22T04:50:51.270Z,100224.13
2023-02-22T04:52:55.025Z,100223.25
2023-02-22T04:54:58.576Z,100211.88
2023-02-22T04:57:01.687Z,100218.09
2023-02-22T04:59:06.581Z,100211.00
2023-02-22T05:01:09.587Z,100204.94
2023-02-22T05:03:14.096Z,100206.72
2023-02-22T05:05:17.674Z,100204.97
2023-02-22T05:07:20.536Z,100202.53
2023-02-22T05:09:23.389Z,100203.94
2023-02-22T05:11:26.440Z,100197.00
2023-02-22T05:13:29.331Z,100196.72
2023-02-22T05:15:32.698Z,100197.47
2023-02-22T05:17:35.995Z,100192.16
2023-02-22T05:19:41.014Z,100192.16
2023-02-22T05:21:43.930Z,100189.44
2023-02-22T05:23:47.276Z,100199.09
2023-02-22T05:25:50.316Z,100190.56
2023-02-22T05:27:53.894Z,100190.44
2023-02-22T05:29:57.486Z,100182.38
2023-02-22T05:32:02.716Z,100189.41
2023-02-22T05:34:05.700Z,100186.78
2023-02-22T05:36:10.673Z,100184.25
2023-02-22T05:38:15.109Z,100187.06
2023-02-22T05:40:19.145Z,100190.44
2023-02-22T05:42:23.420Z,100176.28
2023-02-22T05:44:26.433Z,100191.19
2023-02-22T05:46:29.328Z,100183.81
2023-02-22T05:48:32.319Z,100191.63
2023-02-22T05:50:35.302Z,100180.97
2023-02-22T05:52:39.573Z,100187.19
2023-02-22T05:54:42.533Z,100185.34
2023-02-22T05:56:45.376Z,100181.84
2023-02-22T05:58:48.412Z,100181.06
2023-02-22T06:00:51.342Z,100174.25
2023-02-22T06:02:57.509Z,100176.84
2023-02-22T06:05:00.710Z,100176.00
2023-02-22T06:07:03.691Z,100177.84
2023-02-22T06:09:08.144Z,100172.16
2023-02-22T06:11:11.408Z,100172.09
2023-02-22T06:13:14.312Z,100171.25
2023-02-22T06:15:18.146Z,100176.50
2023-02-22T06:17:21.069Z,100172.16
2023-02-22T06:19:24.267Z,100172.16
2023-02-22T06:21:27.659Z,100172.09
2023-02-22T06:23:30.550Z,100178.25
2023-02-22T06:25:34.770Z,100172.16
2023-02-22T06:27:37.778Z,100171.38
2023-02-22T06:29:40.806Z,100168.66
2023-02-22T06:31:44.079Z,100167.84
2023-02-22T06:33:47.326Z,100175.69
2023-02-22T06:35:50.378Z,100169.09
2023-02-22T06:37:53.284Z,100175.22
2023-02-22T06:39:56.272Z,100179.16
2023-02-22T06:42:01.266Z,100178.97
2023-02-22T06:44:05.691Z,100174.94
2023-02-22T06:46:11.106Z,100180.88
2023-02-22T06:48:14.055Z,100178.25
2023-02-22T06:50:22.516Z,100172.84
2023-02-22T06:52:26.004Z,100172.84
2023-02-22T06:54:29.201Z,100171.03
2023-02-22T06:56:32.066Z,100164.78
2023-02-22T06:58:36.434Z,100166.44
2023-02-22T07:00:39.327Z,100163.69
2023-02-22T07:02:42.372Z,100167.09
2023-02-22T07:04:46.410Z,100163.47
2023-02-22T07:06:49.704Z,100165.06
2023-02-22T07:08:52.778Z,100160.66
2023-02-22T07:10:56.583Z,100159.94
2023-02-22T07:12:59.441Z,100163.06
2023-02-22T07:15:03.715Z,100163.13
2023-02-22T07:17:07.666Z,100157.78
2023-02-22T07:19:10.581Z,100160.88
2023-02-22T07:21:13.864Z,100166.56
2023-02-22T07:23:17.691Z,100166.25
2023-02-22T07:25:21.727Z,100162.50
2023-02-22T07:27:24.596Z,100165.75
2023-02-22T07:29:27.517Z,100163.94
2023-02-22T07:31:36.530Z,100163.31
2023-02-22T07:33:39.863Z,100158.19
2023-02-22T07:35:46.436Z,100158.59
2023-02-22T07:37:49.417Z,100159.94
2023-02-22T07:39:52.316Z,100154.56
2023-02-22T07:41:55.428Z,100154.31
2023-02-22T07:43:59.262Z,100153.03
2023-02-22T07:46:03.320Z,100148.59
2023-02-22T07:48:08.154Z,100155.53
2023-02-22T07:50:11.091Z,100148.72
2023-02-22T07:52:14.418Z,100147.44
2023-02-22T07:54:17.842Z,100147.66
2023-02-22T07:56:21.126Z,100146.56
2023-02-22T07:58:25.732Z,100139.94
2023-02-22T08:00:32.007Z,100139.72
2023-02-22T08:02:34.988Z,100138.50
2023-02-22T08:04:39.595Z,100139.31
2023-02-22T08:06:46.297Z,100142.44
2023-02-22T08:08:49.191Z,100134.34
2023-02-22T08:10:52.670Z,100133.53
2023-02-22T08:12:56.440Z,100129.91
2023-02-22T08:14:59.492Z,100121.34
2023-02-22T08:17:02.393Z,100116.09
2023-02-22T08:19:05.370Z,100112.03
2023-02-22T08:21:09.652Z,100113.81
2023-02-22T08:23:13.855Z,100097.56
2023-02-22T08:25:18.988Z,100106.63
2023-02-22T08:27:26.132Z,100105.75
2023-02-22T08:29:33.466Z,100102.53
2023-02-22T08:31:36.487Z,100103.72
2023-02-22T08:33:39.499Z,100093.44
2023-02-22T08:35:43.018Z,100097.44
2023-02-22T08:37:48.961Z,100091.44
2023-02-22T08:39:51.844Z,100080.31
2023-02-22T08:41:54.934Z,100085.47
2023-02-22T08:44:01.260Z,100082.31
2023-02-22T08:46:04.213Z,100079.41
2023-02-22T08:48:07.528Z,100078.97
2023-02-22T08:50:12.006Z,100073.19
2023-02-22T08:52:14.940Z,100077.38
2023-02-22T08:54:19.316Z,100066.50
2023-02-22T08:56:23.395Z,100076.66
2023-02-22T08:58:26.319Z,100071.53
2023-02-22T09:00:32.942Z,100066.56
2023-02-22T09:02:36.035Z,100056.44
2023-02-22T09:04:38.939Z,100049.03
2023-02-22T09:06:42.359Z,100053.22
2023-02-22T09:08:45.297Z,100052.63
2023-02-22T09:10:51.390Z,100046.69
2023-02-22T09:12:55.446Z,100045.88
2023-02-22T09:14:58.339Z,100045.00
2023-02-22T09:17:01.408Z,100045.69
2023-02-22T09:19:04.491Z,100034.69
2023-02-22T09:21:07.576Z,100029.94
2023-02-22T09:23:10.609Z,100030.97
2023-02-22T09:25:16.983Z,100036.56
2023-02-22T09:27:21.648Z,100025.78
2023-02-22T09:29:26.157Z,100032.09
2023-02-22T09:31:29.322Z,100027.50
2023-02-22T09:33:32.362Z,100024.84
2023-02-22T09:35:36.669Z,100031.03
2023-02-22T09:37:39.707Z,100022.09
2023-02-22T09:39:42.747Z,100024.03
2023-02-22T09:41:53.339Z,100025.44
2023-02-22T09:44:07.624Z,100021.94
2023-02-22T09:46:19.715Z,100019.03
2023-02-22T09:48:25.277Z,100025.91
2023-02-22T09:50:35.753Z,100022.28
2023-02-22T09:52:42.573Z,100024.38
2023-02-22T09:54:51.940Z,100018.59
2023-02-22T09:56:57.575Z,100018.31
2023-02-22T09:59:04.798Z,100013.94
2023-02-22T10:01:22.265Z,100012.84
2023-02-22T10:03:26.703Z,100011.88
2023-02-22T10:05:33.795Z,100011.63
2023-02-22T10:07:40.738Z,100006.34
2023-02-22T10:09:45.254Z,100002.75
2023-02-22T10:11:53.404Z,100006.97
2023-02-22T10:14:03.340Z,100003.19
2023-02-22T10:16:11.946Z,100003.66
2023-02-22T10:18:32.743Z,99991.41
2023-02-22T10:20:44.046Z,99997.78
2023-02-22T10:22:57.945Z,99990.03
2023-02-22T10:25:04.792Z,99993.69
2023-02-22T10:27:08.930Z,99990.88
2023-02-22T10:29:26.769Z,99993.00
2023-02-22T10:31:33.540Z,99986.09
2023-02-22T10:33:40.425Z,99989.06
2023-02-22T10:35:45.385Z,99990.44
2023-02-22T10:37:53.264Z,99990.81
2023-02-22T10:40:01.362Z,99987.06
2023-02-22T10:42:06.881Z,99988.25
2023-02-22T10:44:09.789Z,99986.34
2023-02-22T10:46:17.288Z,99986.56
2023-02-22T10:48:21.287Z,99984.94
2023-02-22T10:50:24.291Z,99984.84
2023-02-22T10:52:29.441Z,99983.94
2023-02-22T10:54:34.961Z,99979.53
2023-02-22T10:56:48.163Z,99982.38
2023-02-22T10:58:53.488Z,99985.72
2023-02-22T11:00:56.420Z,99973.88
2023-02-22T11:03:01.770Z,99969.84
2023-02-22T11:05:06.604Z,99978.66
2023-02-22T11:07:11.415Z,99974.31
2023-02-22T11:09:17.897Z,99971.81
2023-02-22T11:11:25.340Z,99976.25
2023-02-22T11:13:31.057Z,99968.69
2023-02-22T11:15:36.045Z,99966.47
2023-02-22T11:17:39.151Z,99965.72
2023-02-22T11:19:49.104Z,99959.91
2023-02-22T11:21:54.696Z,99965.34
2023-02-22T11:24:03.910Z,99957.91
2023-02-22T11:26:10.490Z,99951.84
2023-02-22T11:28:18.452Z,99951.72
2023-02-22T11:30:29.071Z,99949.72
2023-02-22T11:32:32.140Z,99941.72
2023-02-22T11:34:37.577Z,99939.66
2023-02-22T11:36:43.606Z,99930.94
2023-02-22T11:38:56.222Z,99931.16
2023-02-22T11:41:15.662Z,99922.34
2023-02-22T11:43:20.081Z,99929.06
2023-02-22T11:45:24.932Z,99926.25
2023-02-22T11:47:27.843Z,99923.09
2023-02-22T11:49:35.096Z,99927.59
2023-02-22T11:51:52.459Z,99924.69
2023-02-22T11:54:10.376Z,99921.59
2023-02-22T11:56:20.706Z,99925.03
2023-02-22T11:58:40.976Z,99919.69
2023-02-22T12:00:53.142Z,99908.06
2023-02-22T12:03:09.518Z,99908.00
2023-02-22T12:05:25.240Z,99905.66
2023-02-22T12:07:42.323Z,99901.13
2023-02-22T12:09:49.433Z,99898.22
2023-02-22T12:12:01.831Z,99894.91
2023-02-22T12:14:19.195Z,99893.41
2023-02-22T12:16:25.957Z,99886.25
2023-02-22T12:18:33.981Z,99894.22
2023-02-22T12:20:39.962Z,99885.06
2023-02-22T12:22:53.985Z,99889.66
2023-02-22T12:25:08.949Z,99890.16
2023-02-22T12:27:16.284Z,99891.16
2023-02-22T12:29:27.716Z,99884.38
2023-02-22T12:31:33.889Z,99881.56
2023-02-22T12:33:45.267Z,99878.97
2023-02-22T12:35:52.966Z,99872.56
2023-02-22T12:38:08.337Z,99881.06
2023-02-22T12:40:17.754Z,99880.94
2023-02-22T12:42:24.724Z,99879.50
2023-02-22T12:44:32.090Z,99874.75
2023-02-22T12:46:38.861Z,99879.25
2023-02-22T12:48:45.954Z,99879.38
2023-02-22T12:50:50.728Z,99875.56
2023-02-22T12:52:58.917Z,99872.69
2023-02-22T12:55:11.308Z,99870.16
2023-02-22T12:57:19.840Z,99869.91
2023-02-22T12:59:28.287Z,99859.09
2023-02-22T13:01:35.525Z,99864.91
2023-02-22T13:03:40.289Z,99859.09
2023-02-22T13:05:43.723Z,99860.06
2023-02-22T13:07:50.251Z,99855.94
2023-02-22T13:10:08.358Z,99861.41
2023-02-22T13:12:16.225Z,99857.78
2023-02-22T13:14:33.688Z,99862.63
2023-02-22T13:16:44.006Z,99857.00
2023-02-22T13:18:51.752Z,99850.50
2023-02-22T13:21:00.279Z,99848.38
2023-02-22T13:23:06.808Z,99840.59
2023-02-22T13:25:15.570Z,99845.16
2023-02-22T13:27:22.799Z,99851.56
2023-02-22T13:29:29.671Z,99852.53
2023-02-22T13:31:46.881Z,99852.88
2023-02-22T13:34:02.997Z,99849.63
2023-02-22T13:36:19.050Z,99844.44
2023-02-22T13:38:58.161Z,99844.44
2023-02-22T13:41:14.808Z,99853.47
2023-02-22T13:43:36.510Z,99847.41
2023-02-22T13:46:03.253Z,99848.59
2023-02-22T13:48:35.187Z,99848.47
2023-02-22T13:51:06.738Z,99848.00
2023-02-22T13:53:13.907Z,99851.28
2023-02-22T13:55:19.104Z,99850.69
2023-02-22T13:57:25.890Z,99856.03
2023-02-22T13:59:31.689Z,99842.06
2023-02-22T14:01:42.809Z,99848.38
2023-02-22T14:03:47.225Z,99841.28
2023-02-22T14:05:52.971Z,99846.22
2023-02-22T14:07:56.380Z,99853.72
2023-02-22T14:10:01.737Z,99842.13
2023-02-22T14:12:05.482Z,99849.88
2023-02-22T14:14:14.996Z,99853.78
2023-02-22T14:16:21.023Z,99853.53
2023-02-22T14:18:24.242Z,99848.69
2023-02-22T14:20:32.601Z,99856.41
2023-02-22T14:22:35.797Z,99856.03
2023-02-22T14:24:43.883Z,99855.19
2023-02-22T14:27:01.035Z,99857.03
2023-02-22T14:29:18.599Z,99849.03
2023-02-22T14:31:35.648Z,99859.84
2023-02-22T14:34:01.439Z,99853.06
2023-02-22T14:36:05.382Z,99845.28
2023-02-22T14:38:18.142Z,99849.38
2023-02-22T14:40:25.888Z,99848.88
2023-02-22T14:42:31.622Z,99844.75
2023-02-22T14:44:39.524Z,99843.41
2023-02-22T14:46:43.624Z,99847.16
2023-02-22T14:48:49.299Z,99844.84
2023-02-22T14:50:55.016Z,99855.19
2023-02-22T14:53:02.418Z,99850.09
2023-02-22T14:55:13.748Z,99858.28
2023-02-22T14:57:24.509Z,99855.63
2023-02-22T14:59:28.916Z,99855.38
2023-02-22T15:01:48.898Z,99849.84
2023-02-22T15:04:07.590Z,99853.41
2023-02-22T15:06:16.776Z,99856.00
2023-02-22T15:08:28.073Z,99856.56
2023-02-22T15:10:33.108Z,99856.69
2023-02-22T15:12:36.038Z,99850.28
2023-02-22T15:14:41.124Z,99851.41
2023-02-22T15:16:48.956Z,99858.78
2023-02-22T15:18:54.595Z,99859.19
2023-02-22T15:20:59.382Z,99853.72
2023-02-22T15:23:02.765Z,99849.75
2023-02-22T15:25:08.564Z,99857.06
2023-02-22T15:27:16.153Z,99852.16
2023-02-22T15:29:21.532Z,99851.06
2023-02-22T15:31:29.153Z,99855.03
2023-02-22T15:33:38.085Z,99858.06
2023-02-22T15:35:41.023Z,99860.25
2023-02-22T15:37:45.505Z,99866.03
2023-02-22T15:39:48.548Z,99857.94
2023-02-22T15:42:02.281Z,99861.66
2023-02-22T15:44:17.815Z,99860.84
2023-02-22T15:46:25.569Z,99860.06
2023-02-22T15:48:29.749Z,99860.13
2023-02-22T15:50:35.693Z,99857.66
2023-02-22T15:52:38.645Z,99859.84
2023-02-22T15:54:47.569Z,99867.28
2023-02-22T15:56:55.580Z,99865.28
2023-02-22T15:59:03.751Z,99864.00
2023-02-22T16:01:08.978Z,99866.28
2023-02-22T16:03:13.876Z,99864.34
2023-02-22T16:05:18.554Z,99864.16
2023-02-22T16:07:27.391Z,99873.84
2023-02-22T16:09:33.239Z,99868.44
2023-02-22T16:11:40.331Z,99874.06
2023-02-22T16:13:44.266Z,99873.00
2023-02-22T16:15:55.427Z,99872.13
2023-02-22T16:18:02.437Z,99880.34
2023-02-22T16:20:34.542Z,99877.47
2023-02-22T16:22:46.869Z,99877.56
2023-02-22T16:24:52.546Z,99875.88
2023-02-22T16:27:08.200Z,99883.94
2023-02-22T16:29:11.135Z,99877.25
2023-02-22T16:31:14.358Z,99882.56
2023-02-22T16:33:17.430Z,99879.44
2023-02-22T16:35:20.487Z,99875.09
2023-02-22T16:37:23.958Z,99884.13
2023-02-22T16:39:29.597Z,99882.31
2023-02-22T16:41:32.507Z,99882.88
2023-02-22T16:43:35.930Z,99879.66
2023-02-22T16:45:40.715Z,99888.66
2023-02-22T16:47:45.673Z,99883.16
2023-02-22T16:49:53.025Z,99883.75
2023-02-22T16:52:23.371Z,99884.03
2023-02-22T16:54:36.628Z,99895.56
2023-02-22T16:56:40.660Z,99900.34
2023-02-22T16:58:43.989Z,99895.50
2023-02-22T17:01:12.813Z,99899.03
2023-02-22T17:03:18.551Z,99902.06
2023-02-22T17:05:21.866Z,99894.16
2023-02-22T17:07:29.814Z,99899.72
2023-02-22T17:10:34.059Z,99907.25
2023-02-22T17:12:41.631Z,99904.78
2023-02-22T17:14:47.232Z,99908.88
2023-02-22T17:16:50.306Z,99909.63
2023-02-22T17:18:53.213Z,99909.44
2023-02-22T17:20:56.967Z,99911.84
2023-02-22T17:23:01.143Z,99905.47
2023-02-22T17:25:15.889Z,99914.59
2023-02-22T17:27:19.055Z,99913.16
2023-02-22T17:29:23.477Z,99914.50
2023-02-22T17:31:29.496Z,99917.16
2023-02-22T17:33:36.062Z,99917.97
2023-02-22T17:35:41.057Z,99913.34
2023-02-22T17:37:45.735Z,99914.47
2023-02-22T17:39:48.654Z,99916.94
2023-02-22T17:41:57.710Z,99919.78
2023-02-22T17:44:00.654Z,99920.66
2023-02-22T17:46:08.957Z,99926.97
2023-02-22T17:48:11.949Z,99926.66
2023-02-22T17:50:15.484Z,99928.28
2023-02-22T17:52:18.358Z,99928.09
2023-02-22T17:54:21.495Z,99933.19
2023-02-22T17:56:24.432Z,99930.72
2023-02-22T17:58:30.903Z,99933.56
2023-02-22T18:00:36.865Z,99933.25
2023-02-22T18:02:41.877Z,99934.47
2023-02-22T18:04:45.149Z,99937.94
2023-02-22T18:06:48.140Z,99937.81
2023-02-22T18:08:55.556Z,99940.38
2023-02-22T18:11:01.936Z,99944.44
2023-02-22T18:13:05.052Z,99945.59
2023-02-22T18:15:10.767Z,99945.09
2023-02-22T18:17:13.803Z,99944.53
2023-02-22T18:19:20.941Z,99934.84
2023-02-22T18:21:26.740Z,99948.66
2023-02-22T18:23:31.898Z,99946.03
2023-02-22T18:25:35.349Z,99954.44
2023-02-22T18:27:39.583Z,99947.25
2023-02-22T18:29:42.652Z,99951.78
2023-02-22T18:31:46.569Z,99953.50
2023-02-22T18:33:51.536Z,99960.03
2023-02-22T18:35:56.224Z,99959.06
2023-02-22T18:37:59.410Z,99954.63
2023-02-22T18:40:02.924Z,99962.72
2023-02-22T18:42:05.974Z,99954.97
2023-02-22T18:44:11.106Z,99958.75
2023-02-22T18:46:16.259Z,99953.69
2023-02-22T18:48:19.585Z,99955.31
2023-02-22T18:50:23.022Z,99953.88
2023-02-22T18:52:27.322Z,99954.56
2023-02-22T18:54:30.351Z,99958.13
2023-02-22T18:56:34.121Z,99950.44
2023-02-22T18:58:38.847Z,99949.59
2023-02-22T19:00:42.123Z,99947.91
2023-02-22T19:02:45.178Z,99949.88
2023-02-22T19:04:49.004Z,99959.78
2023-02-22T19:06:52.658Z,99955.44
2023-02-22T19:09:08.656Z,99946.53
2023-02-22T19:11:25.562Z,99957.31
2023-02-22T19:13:46.304Z,99955.44
2023-02-22T19:15:49.310Z,99955.66
2023-02-22T19:17:52.497Z,99955.75
2023-02-22T19:19:55.908Z,99965.56
2023-02-22T19:21:59.034Z,99967.47
2023-02-22T19:24:04.479Z,99953.56
2023-02-22T19:26:09.433Z,99953.66
2023-02-22T19:28:23.396Z,99962.59
2023-02-22T19:30:27.766Z,99962.88
2023-02-22T19:32:33.348Z,99958.72
2023-02-22T19:34:37.107Z,99964.19
2023-02-22T19:36:41.297Z,99964.44
2023-02-22T19:38:44.698Z,99969.91
2023-02-22T19:40:49.091Z,99964.00
2023-02-22T19:42:54.696Z,99963.31
2023-02-22T19:44:58.470Z,99965.53
2023-02-22T19:47:01.460Z,99963.16
2023-02-22T19:49:05.438Z,99970.22
2023-02-22T19:51:11.004Z,99972.16
2023-02-22T19:53:14.148Z,99979.50
2023-02-22T19:55:17.189Z,99970.97
2023-02-22T19:57:24.987Z,99980.75
2023-02-22T19:59:28.064Z,99978.44
2023-02-22T20:01:34.209Z,99981.94
2023-02-22T20:03:39.499Z,99990.28
2023-02-22T20:05:43.696Z,99992.44
2023-02-22T20:07:47.044Z,99991.69
2023-02-22T20:09:50.049Z,99990.91
2023-02-22T20:11:53.061Z,100001.25
2023-02-22T20:13:57.587Z,99992.53
2023-02-22T20:16:00.930Z,100002.75
2023-02-22T20:18:03.901Z,99999.25
2023-02-22T20:20:09.411Z,99998.47
2023-02-22T20:22:13.061Z,100006.09
2023-02-22T20:24:18.393Z,100002.28
2023-02-22T20:26:24.174Z,100002.50
2023-02-22T20:28:27.137Z,100008.34
2023-02-22T20:30:33.608Z,100004.16
2023-02-22T20:32:37.843Z,100008.91
2023-02-22T20:34:40.993Z,100007.56
2023-02-22T20:36:44.223Z,100007.06
2023-02-22T20:38:47.150Z,100005.38
2023-02-22T20:40:50.122Z,100008.63
2023-02-22T20:42:53.514Z,100011.56
2023-02-22T20:45:01.748Z,100007.69
2023-02-22T20:47:06.976Z,100014.38
2023-02-22T20:49:17.335Z,100005.91
2023-02-22T20:51:20.606Z,100006.78
2023-02-22T20:53:24.104Z,100006.78
2023-02-22T20:55:27.315Z,100008.19
2023-02-22T20:57:54.908Z,100004.13
2023-02-22T20:59:59.096Z,100001.78
2023-02-22T21:02:02.141Z,100007.56
2023-02-22T21:04:07.957Z,100004.16
2023-02-22T21:06:11.803Z,100001.34
2023-02-22T21:08:15.892Z,100012.88
2023-02-22T21:10:21.064Z,100003.97
2023-02-22T21:12:24.626Z,100012.38
2023-02-22T21:14:31.071Z,100004.59
2023-02-22T21:16:36.661Z,100013.06
2023-02-22T21:18:39.954Z,100014.84
2023-02-22T21:20:44.464Z,100018.81
2023-02-22T21:22:50.089Z,100017.97
2023-02-22T21:24:54.299Z,100025.84
2023-02-22T21:26:58.637Z,100020.16
2023-02-22T21:29:03.429Z,100024.44
2023-02-22T21:31:08.017Z,100029.97
2023-02-22T21:33:15.381Z,100022.66
2023-02-22T21:35:21.738Z,100023.81
2023-02-22T21:37:26.167Z,100025.75
2023-02-22T21:39:29.509Z,100025.28
2023-02-22T21:41:34.169Z,100019.53
2023-02-22T21:43:37.231Z,100026.97
2023-02-22T21:45:40.191Z,100023.84
2023-02-22T21:47:46.395Z,100031.00
2023-02-22T21:49:50.294Z,100029.47
2023-02-22T21:51:53.544Z,100031.34
2023-02-22T21:54:01.934Z,100026.22
2023-02-22T21:56:06.342Z,100031.56
2023-02-22T21:58:09.528Z,100034.00
2023-02-22T22:00:19.176Z,100029.56
2023-02-22T22:02:22.331Z,100027.44
2023-02-22T22:04:27.801Z,100027.22
2023-02-22T22:06:32.803Z,100038.44
2023-02-22T22:08:40.133Z,100030.75
2023-02-22T22:10:44.501Z,100030.78
2023-02-22T22:12:47.507Z,100025.28
2023-02-22T22:14:50.824Z,100035.06
2023-02-22T22:16:56.039Z,100027.16
2023-02-22T22:18:59.050Z,100032.91
2023-02-22T22:21:10.606Z,100026.22
2023-02-22T22:23:13.797Z,100034.03
2023-02-22T22:25:18.098Z,100025.75
2023-02-22T22:27:22.389Z,100021.09
2023-02-22T22:29:28.715Z,100029.78
2023-02-22T22:31:32.391Z,100018.88
2023-02-22T22:33:35.448Z,100030.16
2023-02-22T22:35:39.828Z,100030.88
2023-02-22T22:37:43.732Z,100026.59
2023-02-22T22:39:46.777Z,100027.59
2023-02-22T22:41:49.918Z,100024.31
2023-02-22T22:43:54.239Z,100023.09
2023-02-22T22:46:00.557Z,100035.31
2023-02-22T22:48:04.647Z,100039.56
2023-02-22T22:50:10.828Z,100037.97
2023-02-22T22:52:16.131Z,100025.03
2023-02-22T22:54:19.043Z,100035.13
2023-02-22T22:56:26.301Z,100037.94
2023-02-22T22:58:29.457Z,100031.47
2023-02-22T23:00:37.446Z,100042.97
2023-02-22T23:02:40.662Z,100046.34
2023-02-22T23:04:43.562Z,100038.50
2023-02-22T23:06:49.893Z,100042.44
2023-02-22T23:08:59.972Z,100037.63
2023-02-22T23:11:09.110Z,100040.34
2023-02-22T23:13:15.778Z,100038.34
2023-02-22T23:15:18.712Z,100041.22
2023-02-22T23:17:31.214Z,100034.13
2023-02-22T23:19:37.465Z,100037.22
2023-02-22T23:21:43.233Z,100039.19
2023-02-22T23:23:47.384Z,100037.69
2023-02-22T23:25:51.448Z,100046.63
2023-02-22T23:27:55.143Z,100039.31
2023-02-22T23:29:59.252Z,100041.59
2023-02-22T23:32:02.208Z,100048.66
2023-02-22T23:34:11.024Z,100046.88
2023-02-22T23:36:15.223Z,100043.59
2023-02-22T23:38:18.076Z,100045.78
2023-02-22T23:40:21.045Z,100047.47
2023-02-22T23:42:23.967Z,100053.25
2023-02-22T23:44:27.415Z,100054.94
2023-02-22T23:46:32.862Z,100060.44
2023-02-22T23:48:36.083Z,100060.75
2023-02-22T23:50:40.349Z,100066.19
2023-02-22T23:52:43.631Z,100074.03
2023-02-22T23:54:46.823Z,100067.91
2023-02-22T23:56:56.602Z,100079.09
2023-02-22T23:58:59.822Z,100083.75
